Time,TemperatureF,DewpointF,PressureIn,WindDirection,WindDirectionDegrees,WindSpeedMPH,WindSpeedGustMPH,Humidity,HourlyPrecipIn,Conditions,Clouds,dailyrainin,SoftwareType,DateUTC
2013-10-12 00:01:00,84.1,78.7,29.90,East,100,12.0,18.0,84,0.00,CLR,,0.00,WeatherDisplay:10.37,2013-10-12 06:01:00,
2013-10-12 00:16:00,84.0,78.6,29.90,East,96,12.0,18.0,84,0.00,CLR,,0.00,WeatherDisplay:10.37,2013-10-12 06:16:00,
2013-10-12 00:31:00,84.0,78.6,29.89,East,91,8.0,18.0,84,0.00,CLR,,0.00,WeatherDisplay:10.37,2013-10-12 06:31:00,
2013-10-12 00:46:00,84.0,79.0,29.89,East,100,6.0,16.0,85,0.00,CLR,,0.00,WeatherDisplay:10.37,2013-10-12 06:46:00,
2013-10-12 01:01:00,84.0,79.0,29.89,ESE,103,13.0,15.0,85,0.00,CLR,,0.00,WeatherDisplay:10.37,2013-10-12 07:01:00,
2013-10-12 01:16:00,83.9,78.9,29.89,ESE,113,14.0,16.0,85,0.00,CLR,,0.00,WeatherDisplay:10.37,2013-10-12 07:16:00,
2013-10-12 01:31:00,83.8,78.4,29.88,ESE,121,14.0,16.0,84,0.00,CLR,,0.00,WeatherDisplay:10.37,2013-10-12 07:31:00,
2013-10-12 01:46:00,83.8,78.8,29.88,ESE,113,12.0,15.0,85,0.00,CLR,,0.00,WeatherDisplay:10.37,2013-10-12 07:46:00,
2013-10-12 02:01:00,83.8,79.1,29.88,ESE,106,8.0,15.0,86,0.00,CLR,,0.00,WeatherDisplay:10.37,2013-10-12 08:01:00,
2013-10-12 02:16:00,83.5,78.9,29.88,ESE,111,5.0,13.0,86,0.00,CLR,,0.00,WeatherDisplay:10.37,2013-10-12 08:16:00,
2013-10-12 02:31:00,83.4,79.2,29.87,ESE,118,8.0,10.0,87,0.00,CLR,,0.00,WeatherDisplay:10.37,2013-10-12 08:31:00,
2013-10-12 02:46:00,82.2,78.3,29.88,SE,130,7.0,16.0,88,0.01,,,0.01,WeatherDisplay:10.37,2013-10-12 08:46:00,
2013-10-12 03:01:00,81.8,76.5,29.88,ESE,112,14.0,18.0,84,0.00,CLR,,0.01,WeatherDisplay:10.37,2013-10-12 09:01:00,
2013-10-12 03:16:00,82.3,77.7,29.88,ESE,112,10.0,13.0,86,0.01,,,0.02,WeatherDisplay:10.37,2013-10-12 09:16:00,
2013-10-12 03:31:00,83.3,77.6,29.88,ESE,121,13.0,16.0,83,0.00,CLR,,0.02,WeatherDisplay:10.37,2013-10-12 09:31:00,
2013-10-12 03:46:00,83.6,77.9,29.88,ESE,123,15.0,18.0,83,0.00,CLR,,0.02,WeatherDisplay:10.37,2013-10-12 09:46:00,
2013-10-12 04:01:00,83.5,78.2,29.89,ESE,112,14.0,19.0,84,0.00,CLR,,0.02,WeatherDisplay:10.37,2013-10-12 10:01:00,
2013-10-12 04:16:00,83.4,78.1,29.89,ESE,117,12.0,18.0,84,0.00,CLR,,0.02,WeatherDisplay:10.37,2013-10-12 10:16:00,
2013-10-12 04:31:00,83.6,78.6,29.89,ESE,117,9.0,14.0,85,0.00,CLR,,0.02,WeatherDisplay:10.37,2013-10-12 10:31:00,
2013-10-12 04:46:00,83.6,79.0,29.89,ESE,118,8.0,13.0,86,0.00,CLR,,0.02,WeatherDisplay:10.37,2013-10-12 10:46:00,
2013-10-12 05:01:00,82.4,78.1,29.89,ESE,106,9.0,19.0,87,0.00,CLR,,0.02,WeatherDisplay:10.37,2013-10-12 11:01:00,
2013-10-12 05:16:00,81.3,76.4,29.90,ESE,114,8.0,13.0,85,0.00,CLR,,0.02,WeatherDisplay:10.37,2013-10-12 11:16:00,
2013-10-12 05:31:00,82.4,77.8,29.90,ESE,115,12.0,13.0,86,0.00,CLR,,0.02,WeatherDisplay:10.37,2013-10-12 11:31:00,
2013-10-12 05:46:00,83.0,77.7,29.91,ESE,117,12.0,15.0,84,0.00,CLR,,0.02,WeatherDisplay:10.37,2013-10-12 11:46:00,
2013-10-12 06:01:00,83.2,77.1,29.91,ESE,112,8.0,14.0,82,0.00,CLR,,0.02,WeatherDisplay:10.37,2013-10-12 12:01:00,
2013-10-12 06:16:00,83.8,77.4,29.91,ESE,110,6.0,12.0,81,0.00,CLR,,0.02,WeatherDisplay:10.37,2013-10-12 12:16:00,
2013-10-12 06:31:00,84.2,78.5,29.92,ESE,108,3.0,10.0,83,0.00,CLR,,0.02,WeatherDisplay:10.37,2013-10-12 12:31:00,
2013-10-12 06:46:00,84.3,78.2,29.92,ESE,107,9.0,12.0,82,0.00,CLR,,0.02,WeatherDisplay:10.37,2013-10-12 12:46:00,
2013-10-12 07:01:00,84.7,78.2,29.92,ESE,102,3.0,9.0,81,0.00,CLR,,0.02,WeatherDisplay:10.37,2013-10-12 13:01:00,
2013-10-12 07:16:00,85.4,78.5,29.93,East,97,2.0,9.0,80,0.00,CLR,,0.02,WeatherDisplay:10.37,2013-10-12 13:16:00,
2013-10-12 07:31:00,86.0,77.5,29.93,East,94,5.0,9.0,76,0.00,CLR,,0.02,WeatherDisplay:10.37,2013-10-12 13:31:00,
2013-10-12 07:46:00,86.3,77.8,29.94,ESE,108,5.0,10.0,76,0.00,CLR,,0.02,WeatherDisplay:10.37,2013-10-12 13:46:00,
2013-10-12 08:01:00,86.5,78.4,29.94,ESE,102,3.0,12.0,77,0.00,CLR,,0.02,WeatherDisplay:10.37,2013-10-12 14:01:00,
2013-10-12 08:16:00,86.4,78.3,29.95,East,94,3.0,12.0,77,0.00,CLR,,0.02,WeatherDisplay:10.37,2013-10-12 14:16:00,
2013-10-12 08:31:00,85.9,78.6,29.95,East,90,7.0,12.0,79,0.00,CLR,,0.02,WeatherDisplay:10.37,2013-10-12 14:31:00,
2013-10-12 08:46:00,86.1,78.8,29.95,East,95,7.0,13.0,79,0.00,CLR,,0.02,WeatherDisplay:10.37,2013-10-12 14:46:00,
2013-10-12 09:01:00,86.4,79.1,29.95,East,93,5.0,13.0,79,0.00,CLR,,0.02,WeatherDisplay:10.37,2013-10-12 15:01:00,
2013-10-12 09:16:00,86.3,78.6,29.96,East,90,8.0,12.0,78,0.00,CLR,,0.02,WeatherDisplay:10.37,2013-10-12 15:16:00,
2013-10-12 09:31:00,86.7,79.0,29.96,East,95,7.0,12.0,78,0.00,CLR,,0.02,WeatherDisplay:10.37,2013-10-12 15:31:00,
2013-10-12 09:46:00,87.2,79.1,29.96,ESE,103,6.0,12.0,77,0.00,CLR,,0.02,WeatherDisplay:10.37,2013-10-12 15:46:00,
2013-10-12 10:01:00,87.4,79.7,29.96,East,95,5.0,13.0,78,0.00,CLR,,0.02,WeatherDisplay:10.37,2013-10-12 16:01:00,
2013-10-12 10:16:00,87.7,79.6,29.95,East,98,5.0,12.0,77,0.00,CLR,,0.02,WeatherDisplay:10.37,2013-10-12 16:16:00,
2013-10-12 10:31:00,87.2,79.1,29.95,East,92,5.0,13.0,77,0.00,CLR,,0.02,WeatherDisplay:10.37,2013-10-12 16:31:00,
2013-10-12 10:46:00,87.6,79.5,29.95,East,96,6.0,13.0,77,0.00,CLR,,0.02,WeatherDisplay:10.37,2013-10-12 16:46:00,
2013-10-12 11:01:00,87.7,79.6,29.94,East,92,7.0,12.0,77,0.00,CLR,,0.02,WeatherDisplay:10.37,2013-10-12 17:01:00,
2013-10-12 11:16:00,87.4,78.9,29.94,East,89,6.0,13.0,76,0.00,CLR,,0.02,WeatherDisplay:10.37,2013-10-12 17:16:00,
2013-10-12 11:31:00,87.6,79.1,29.93,East,101,5.0,12.0,76,0.00,CLR,,0.02,WeatherDisplay:10.37,2013-10-12 17:31:00,
2013-10-12 11:46:00,88.2,79.7,29.93,ESE,103,5.0,9.0,76,0.00,CLR,,0.02,WeatherDisplay:10.37,2013-10-12 17:46:00,
2013-10-12 12:01:00,87.6,79.5,29.92,East,92,8.0,10.0,77,0.00,CLR,,0.02,WeatherDisplay:10.37,2013-10-12 18:01:00,
2013-10-12 12:16:00,87.6,79.5,29.92,East,89,3.0,12.0,77,0.00,CLR,,0.02,WeatherDisplay:10.37,2013-10-12 18:16:00,
2013-10-12 12:31:00,88.1,79.6,29.92,East,91,6.0,12.0,76,0.00,CLR,,0.02,WeatherDisplay:10.37,2013-10-12 18:31:00,
2013-10-12 12:46:00,87.2,78.7,29.91,East,96,8.0,12.0,76,0.00,CLR,,0.02,WeatherDisplay:10.37,2013-10-12 18:46:00,
2013-10-12 13:01:00,87.4,78.9,29.91,East,84,6.0,12.0,76,0.00,CLR,,0.02,WeatherDisplay:10.37,2013-10-12 19:01:00,
2013-10-12 13:16:00,87.5,79.4,29.90,East,90,6.0,12.0,77,0.00,CLR,,0.02,WeatherDisplay:10.37,2013-10-12 19:16:00,
2013-10-12 13:31:00,87.3,79.2,29.90,East,84,8.0,13.0,77,0.00,CLR,,0.02,WeatherDisplay:10.37,2013-10-12 19:31:00,
2013-10-12 13:46:00,87.2,79.1,29.89,East,94,8.0,13.0,77,0.00,CLR,,0.02,WeatherDisplay:10.37,2013-10-12 19:46:00,
2013-10-12 14:01:00,86.8,79.1,29.89,East,91,5.0,10.0,78,0.00,CLR,,0.02,WeatherDisplay:10.37,2013-10-12 20:01:00,
2013-10-12 14:16:00,86.7,79.1,29.89,East,83,3.0,12.0,78,0.00,CLR,,0.02,WeatherDisplay:10.37,2013-10-12 20:16:00,
2013-10-12 14:31:00,87.1,79.4,29.88,East,91,5.0,13.0,78,0.00,CLR,,0.02,WeatherDisplay:10.37,2013-10-12 20:31:00,
2013-10-12 14:46:00,87.1,79.4,29.88,East,98,6.0,12.0,78,0.00,CLR,,0.02,WeatherDisplay:10.37,2013-10-12 20:46:00,
2013-10-12 15:01:00,86.6,79.3,29.88,East,94,7.0,12.0,79,0.00,CLR,,0.02,WeatherDisplay:10.37,2013-10-12 21:01:00,
2013-10-12 15:16:00,86.2,77.7,29.88,East,83,8.0,12.0,76,0.00,CLR,,0.02,WeatherDisplay:10.37,2013-10-12 21:16:00,
2013-10-12 15:31:00,86.1,78.8,29.88,East,82,6.0,12.0,79,0.00,CLR,,0.02,WeatherDisplay:10.37,2013-10-12 21:31:00,
2013-10-12 15:46:00,86.1,77.6,29.88,East,90,7.0,12.0,76,0.00,CLR,,0.02,WeatherDisplay:10.37,2013-10-12 21:46:00,
2013-10-12 16:01:00,86.0,76.8,29.88,East,89,8.0,12.0,74,0.00,CLR,,0.02,WeatherDisplay:10.37,2013-10-12 22:01:00,
2013-10-12 16:16:00,86.0,77.5,29.88,East,85,7.0,12.0,76,0.00,CLR,,0.02,WeatherDisplay:10.37,2013-10-12 22:16:00,
2013-10-12 16:27:00,85.8,77.3,29.88,East,81,7.0,13.0,76,0.00,CLR,,0.02,WeatherDisplay:10.37,2013-10-12 22:27:00,
2013-10-12 16:46:00,85.5,77.9,29.88,East,79,9.0,13.0,78,0.00,CLR,,0.02,WeatherDisplay:10.37,2013-10-12 22:46:00,
2013-10-12 17:01:00,85.2,77.5,29.89,ENE,71,6.0,12.0,78,0.00,CLR,,0.02,WeatherDisplay:10.37,2013-10-12 23:01:00,
2013-10-12 17:16:00,84.8,77.9,29.89,East,85,5.0,13.0,80,0.00,CLR,,0.02,WeatherDisplay:10.37,2013-10-12 23:16:00,
2013-10-12 17:31:00,84.5,78.0,29.89,East,84,9.0,12.0,81,0.00,CLR,,0.02,WeatherDisplay:10.37,2013-10-12 23:31:00,
2013-10-12 17:46:00,84.4,77.9,29.90,East,84,8.0,12.0,81,0.00,CLR,,0.02,WeatherDisplay:10.37,2013-10-12 23:46:00,
2013-10-12 18:00:00,83.9,78.5,29.94,East,90,8.0,13.0,84,0.00,CLR,,0.00,WeatherDisplay:10.37,2013-10-13 00:00:00,
2013-10-12 18:01:00,84.3,77.5,29.90,East,86,7.0,13.0,80,0.00,CLR,,0.02,WeatherDisplay:10.37,2013-10-13 00:01:00,
2013-10-12 18:15:00,84.1,78.0,29.94,East,90,10.0,16.0,82,0.00,CLR,,0.00,WeatherDisplay:10.37,2013-10-13 00:15:00,
2013-10-12 18:16:00,84.5,78.4,29.91,ENE,78,7.0,13.0,82,0.00,CLR,,0.02,WeatherDisplay:10.37,2013-10-13 00:16:00,
2013-10-12 18:30:00,84.1,78.7,29.93,East,90,10.0,16.0,84,0.00,CLR,,0.00,WeatherDisplay:10.37,2013-10-13 00:30:00,
2013-10-12 18:31:00,84.4,78.7,29.92,ENE,78,9.0,14.0,83,0.00,CLR,,0.02,WeatherDisplay:10.37,2013-10-13 00:31:00,
2013-10-12 18:45:00,84.0,78.3,29.93,East,90,9.0,15.0,83,0.00,CLR,,0.00,WeatherDisplay:10.37,2013-10-13 00:45:00,
2013-10-12 18:46:00,84.4,78.7,29.92,East,81,7.0,15.0,83,0.00,CLR,,0.02,WeatherDisplay:10.37,2013-10-13 00:46:00,
2013-10-12 19:00:00,83.9,77.8,29.92,East,90,10.0,15.0,82,0.00,CLR,,0.00,WeatherDisplay:10.37,2013-10-13 01:00:00,
2013-10-12 19:01:00,84.4,79.0,29.93,East,81,8.0,14.0,84,0.00,CLR,,0.02,WeatherDisplay:10.37,2013-10-13 01:01:00,
2013-10-12 19:15:00,83.8,77.7,29.92,East,90,10.0,16.0,82,0.00,CLR,,0.00,WeatherDisplay:10.37,2013-10-13 01:15:00,
2013-10-12 19:16:00,84.0,77.9,29.94,ENE,76,8.0,13.0,82,0.00,CLR,,0.02,WeatherDisplay:10.37,2013-10-13 01:16:00,
2013-10-12 19:30:00,83.7,78.0,29.92,East,90,9.0,15.0,83,0.00,CLR,,0.00,WeatherDisplay:10.37,2013-10-13 01:30:00,
2013-10-12 19:31:00,83.9,78.2,29.94,East,88,9.0,15.0,83,0.00,CLR,,0.02,WeatherDisplay:10.37,2013-10-13 01:31:00,
2013-10-12 19:45:00,83.6,77.9,29.92,East,90,7.0,14.0,83,0.00,CLR,,0.00,WeatherDisplay:10.37,2013-10-13 01:45:00,
2013-10-12 19:46:00,83.8,77.4,29.94,NE,54,7.0,14.0,81,0.00,CLR,,0.02,WeatherDisplay:10.37,2013-10-13 01:46:00,
2013-10-12 20:00:00,83.6,77.9,29.92,East,90,7.0,14.0,83,0.00,CLR,,0.00,WeatherDisplay:10.37,2013-10-13 02:00:00,
2013-10-12 20:01:00,84.2,78.5,29.94,East,88,13.0,18.0,83,0.00,CLR,,0.02,WeatherDisplay:10.37,2013-10-13 02:01:00,
2013-10-12 20:15:00,83.5,77.8,29.92,East,90,7.0,14.0,83,0.00,CLR,,0.00,WeatherDisplay:10.37,2013-10-13 02:15:00,
2013-10-12 20:16:00,84.1,78.7,29.95,East,85,12.0,19.0,84,0.00,CLR,,0.02,WeatherDisplay:10.37,2013-10-13 02:16:00,
2013-10-12 20:30:00,83.5,77.8,29.92,East,90,6.0,14.0,83,0.00,CLR,,0.00,WeatherDisplay:10.37,2013-10-13 02:30:00,
2013-10-12 20:31:00,84.3,78.2,29.96,East,90,12.0,18.0,82,0.00,CLR,,0.02,WeatherDisplay:10.37,2013-10-13 02:31:00,
2013-10-12 20:45:00,83.4,78.1,29.91,ENE,77,3.0,13.0,84,0.00,CLR,,0.00,WeatherDisplay:10.37,2013-10-13 02:45:00,
2013-10-12 20:46:00,84.4,78.6,29.96,East,98,14.0,18.0,83,0.00,CLR,,0.02,WeatherDisplay:10.37,2013-10-13 02:46:00,
2013-10-12 21:00:00,83.3,78.0,29.91,ENE,68,3.0,11.0,84,0.00,CLR,,0.00,WeatherDisplay:10.37,2013-10-13 03:00:00,
2013-10-12 21:01:00,84.2,78.5,29.96,East,93,14.0,18.0,83,0.00,CLR,,0.02,WeatherDisplay:10.37,2013-10-13 03:01:00,
2013-10-12 21:15:00,83.3,78.0,29.91,East,79,5.0,11.0,84,0.00,CLR,,0.00,WeatherDisplay:10.37,2013-10-13 03:15:00,
2013-10-12 21:16:00,84.2,78.8,29.96,East,85,9.0,19.0,84,0.00,CLR,,0.02,WeatherDisplay:10.37,2013-10-13 03:16:00,
2013-10-12 21:30:00,83.2,77.5,29.91,ENE,68,3.0,11.0,83,0.00,CLR,,0.00,WeatherDisplay:10.37,2013-10-13 03:30:00,
2013-10-12 21:31:00,84.2,78.5,29.97,East,90,14.0,18.0,83,0.00,CLR,,0.02,WeatherDisplay:10.37,2013-10-13 03:31:00,
2013-10-12 21:45:00,83.1,77.0,29.91,East,79,5.0,11.0,82,0.00,CLR,,0.00,WeatherDisplay:10.37,2013-10-13 03:45:00,
2013-10-12 21:46:00,84.2,78.5,29.96,East,88,10.0,15.0,83,0.00,CLR,,0.02,WeatherDisplay:10.37,2013-10-13 03:46:00,
2013-10-12 22:00:00,83.1,77.0,29.91,East,90,3.0,11.0,82,0.00,CLR,,0.00,WeatherDisplay:10.37,2013-10-13 04:00:00,
2013-10-12 22:01:00,84.1,78.3,29.96,East,84,10.0,15.0,83,0.00,CLR,,0.02,WeatherDisplay:10.37,2013-10-13 04:01:00,
2013-10-12 22:15:00,83.1,77.4,29.91,ENE,68,2.0,8.0,83,0.00,CLR,,0.00,WeatherDisplay:10.37,2013-10-13 04:15:00,
2013-10-12 22:16:00,84.0,78.6,29.96,East,94,9.0,15.0,84,0.00,CLR,,0.02,WeatherDisplay:10.37,2013-10-13 04:16:00,
2013-10-12 22:30:00,83.1,77.4,29.92,ENE,68,2.0,8.0,83,0.00,CLR,,0.00,WeatherDisplay:10.37,2013-10-13 04:30:00,
2013-10-12 22:31:00,83.9,78.5,29.96,East,92,12.0,15.0,84,0.00,CLR,,0.02,WeatherDisplay:10.37,2013-10-13 04:31:00,
2013-10-12 22:45:00,83.0,77.3,29.92,ENE,64,5.0,9.0,83,0.00,CLR,,0.00,WeatherDisplay:10.37,2013-10-13 04:45:00,
2013-10-12 22:46:00,83.8,78.8,29.96,East,95,8.0,14.0,85,0.00,CLR,,0.02,WeatherDisplay:10.37,2013-10-13 04:46:00,
2013-10-12 23:00:00,83.0,77.3,29.92,NE,45,2.0,9.0,83,0.00,CLR,,0.00,WeatherDisplay:10.37,2013-10-13 05:00:00,
2013-10-12 23:01:00,84.0,78.6,29.96,ESE,105,10.0,18.0,84,0.00,CLR,,0.02,WeatherDisplay:10.37,2013-10-13 05:01:00,
2013-10-12 23:15:00,82.9,77.6,29.92,NE,45,3.0,9.0,84,0.00,CLR,,0.00,WeatherDisplay:10.37,2013-10-13 05:15:00,
2013-10-12 23:16:00,84.1,78.7,29.95,East,91,12.0,17.0,84,0.00,CLR,,0.02,WeatherDisplay:10.37,2013-10-13 05:16:00,
2013-10-12 23:30:00,82.5,77.2,29.93,East,90,6.0,18.0,84,0.03,RA,,0.03,WeatherDisplay:10.37,2013-10-13 05:30:00,
2013-10-12 23:31:00,84.0,78.3,29.95,East,92,7.0,15.0,83,0.00,CLR,,0.02,WeatherDisplay:10.37,2013-10-13 05:31:00,
2013-10-12 23:45:00,81.6,77.7,29.93,East,90,5.0,11.0,88,0.00,CLR,,0.03,WeatherDisplay:10.37,2013-10-13 05:45:00,